createdAt,value
2019-03-19T00:02:03.063Z,58.10
2019-03-19T00:04:32.303Z,58.59
2019-03-19T00:07:01.474Z,58.39
2019-03-19T00:09:30.754Z,59.02
2019-03-19T00:11:59.920Z,59.25
2019-03-19T00:14:29.166Z,60.55
2019-03-19T00:16:58.472Z,60.60
2019-03-19T00:19:27.666Z,60.73
2019-03-19T00:21:56.853Z,60.82
2019-03-19T00:24:26.439Z,61.00
2019-03-19T00:26:55.660Z,60.75
2019-03-19T00:29:25.628Z,60.90
2019-03-19T00:31:54.944Z,60.88
2019-03-19T00:34:24.161Z,60.92
2019-03-19T00:36:53.330Z,61.13
2019-03-19T00:39:22.481Z,61.54
2019-03-19T00:41:51.673Z,62.02
2019-03-19T00:44:20.959Z,61.71
2019-03-19T00:46:50.178Z,61.64
2019-03-19T00:49:19.457Z,62.19
2019-03-19T00:51:48.676Z,62.14
2019-03-19T00:54:17.802Z,62.52
2019-03-19T00:57:06.027Z,62.68
2019-03-19T00:59:35.456Z,62.91
2019-03-19T01:02:05.576Z,63.16
2019-03-19T01:04:34.713Z,63.16
2019-03-19T01:07:03.832Z,63.37
2019-03-19T01:09:32.960Z,63.20
2019-03-19T01:12:02.153Z,63.42
2019-03-19T01:14:31.356Z,63.51
2019-03-19T01:17:00.506Z,63.71
2019-03-19T01:19:32.513Z,63.66
2019-03-19T01:22:02.021Z,63.94
2019-03-19T01:24:31.588Z,64.11
2019-03-19T01:27:00.823Z,64.50
2019-03-19T01:29:33.272Z,64.46
2019-03-19T01:32:02.570Z,64.44
2019-03-19T01:34:31.789Z,64.61
2019-03-19T01:37:01.193Z,64.68
2019-03-19T01:39:30.370Z,64.77
2019-03-19T01:41:59.627Z,64.74
2019-03-19T01:44:28.827Z,64.73
2019-03-19T01:46:57.982Z,65.07
2019-03-19T01:49:27.223Z,64.99
2019-03-19T01:51:58.601Z,65.02
2019-03-19T01:54:30.803Z,64.97
2019-03-19T01:57:00.024Z,64.88
2019-03-19T01:59:29.412Z,64.60
2019-03-19T02:02:01.435Z,64.91
2019-03-19T02:04:30.632Z,64.97
2019-03-19T02:06:59.925Z,65.05
2019-03-19T02:09:29.126Z,65.21
2019-03-19T02:11:58.337Z,65.20
2019-03-19T02:14:27.509Z,65.04
2019-03-19T02:16:56.651Z,65.26
2019-03-19T02:19:25.920Z,65.66
2019-03-19T02:21:57.750Z,66.07
2019-03-19T02:24:27.023Z,66.38
2019-03-19T02:26:56.551Z,66.95
2019-03-19T02:29:25.754Z,67.41
2019-03-19T02:32:20.882Z,67.81
2019-03-19T02:34:52.774Z,67.67
2019-03-19T02:37:22.074Z,67.60
2019-03-19T02:39:51.192Z,67.64
2019-03-19T02:42:20.414Z,67.72
2019-03-19T02:44:49.615Z,67.92
2019-03-19T02:47:18.814Z,68.12
2019-03-19T02:49:48.484Z,68.49
2019-03-19T02:52:20.940Z,68.60
2019-03-19T02:54:50.515Z,68.51
2019-03-19T02:57:20.007Z,68.67
2019-03-19T02:59:49.270Z,68.70
2019-03-19T03:02:18.543Z,68.82
2019-03-19T03:04:47.767Z,68.97
2019-03-19T03:07:20.072Z,69.01
2019-03-19T03:09:49.283Z,69.17
2019-03-19T03:12:18.761Z,69.37
2019-03-19T03:14:47.997Z,69.35
2019-03-19T03:17:17.477Z,69.38
2019-03-19T03:19:46.689Z,69.39
2019-03-19T03:22:18.855Z,69.58
2019-03-19T03:24:48.080Z,69.68
2019-03-19T03:27:17.248Z,69.72
2019-03-19T03:29:49.548Z,69.78
2019-03-19T03:32:19.370Z,69.84
2019-03-19T03:34:49.090Z,69.99
2019-03-19T03:37:18.504Z,70.16
2019-03-19T03:39:57.682Z,70.16
2019-03-19T03:42:27.320Z,69.94
2019-03-19T03:44:56.521Z,70.01
2019-03-19T03:47:25.709Z,70.31
2019-03-19T03:49:54.999Z,70.43
2019-03-19T03:52:24.155Z,70.61
2019-03-19T03:54:53.355Z,70.63
2019-03-19T03:57:22.551Z,70.89
2019-03-19T03:59:52.476Z,71.24
2019-03-19T04:02:21.728Z,71.46
2019-03-19T04:04:50.851Z,71.52
2019-03-19T04:07:20.055Z,71.65
2019-03-19T04:09:50.327Z,71.79
2019-03-19T04:12:22.493Z,71.91
2019-03-19T04:14:51.781Z,71.90
2019-03-19T04:17:20.960Z,71.92
2019-03-19T04:19:50.910Z,72.01
2019-03-19T04:22:20.148Z,72.25
2019-03-19T04:24:49.360Z,72.35
2019-03-19T04:27:20.511Z,72.33
2019-03-19T04:29:51.697Z,72.37
2019-03-19T04:32:20.894Z,72.14
2019-03-19T04:34:52.439Z,72.32
2019-03-19T04:37:22.503Z,72.25
2019-03-19T04:39:51.631Z,72.30
2019-03-19T04:42:20.845Z,72.43
2019-03-19T04:44:50.026Z,72.77
2019-03-19T04:47:21.425Z,72.90
2019-03-19T04:49:50.760Z,72.88
2019-03-19T04:52:20.035Z,73.16
2019-03-19T04:54:49.298Z,73.38
2019-03-19T04:57:26.668Z,73.67
2019-03-19T04:59:50.458Z,73.63
2019-03-19T05:04:55.288Z,73.71
2019-03-19T05:07:24.457Z,73.78
2019-03-19T05:09:53.966Z,73.68
2019-03-19T05:12:23.273Z,73.70
2019-03-19T05:14:54.698Z,73.76
2019-03-19T05:17:25.455Z,73.71
2019-03-19T05:19:54.876Z,73.77
2019-03-19T05:22:24.050Z,73.99
2019-03-19T05:24:53.963Z,74.04
2019-03-19T05:27:23.133Z,74.17
2019-03-19T05:29:52.572Z,74.35
2019-03-19T05:32:21.791Z,74.48
2019-03-19T05:34:51.005Z,74.52
2019-03-19T05:37:20.658Z,74.55
2019-03-19T05:39:49.850Z,74.44
2019-03-19T05:42:20.012Z,74.39
2019-03-19T05:44:49.213Z,74.51
2019-03-19T05:47:18.511Z,74.61
2019-03-19T05:49:47.734Z,74.60
2019-03-19T05:52:16.990Z,74.54
2019-03-19T05:54:46.204Z,74.61
2019-03-19T05:57:19.652Z,74.55
2019-03-19T05:59:48.841Z,74.22
2019-03-19T06:02:18.072Z,74.26
2019-03-19T06:04:47.225Z,74.18
2019-03-19T06:07:16.670Z,74.04
2019-03-19T06:09:45.967Z,74.04
2019-03-19T06:12:15.116Z,73.93
2019-03-19T06:14:44.345Z,73.86
2019-03-19T06:17:18.581Z,73.78
2019-03-19T06:19:49.843Z,73.91
2019-03-19T06:22:19.069Z,73.66
2019-03-19T06:24:48.352Z,73.56
2019-03-19T06:27:17.585Z,73.58
2019-03-19T06:29:46.893Z,73.65
2019-03-19T06:32:16.092Z,73.55
2019-03-19T06:34:45.355Z,73.61
2019-03-19T06:37:14.875Z,73.34
2019-03-19T06:39:44.451Z,73.23
2019-03-19T06:42:13.982Z,73.40
2019-03-19T06:44:43.258Z,73.44
2019-03-19T06:47:12.696Z,73.45
2019-03-19T06:49:41.910Z,73.46
2019-03-19T06:52:11.083Z,72.96
2019-03-19T06:54:40.402Z,72.90
2019-03-19T06:57:09.745Z,72.72
2019-03-19T06:59:38.873Z,72.62
2019-03-19T07:02:08.191Z,72.42
2019-03-19T07:04:37.391Z,72.44
2019-03-19T07:07:06.568Z,72.34
2019-03-19T07:09:35.974Z,72.25
2019-03-19T07:12:06.033Z,72.54
2019-03-19T07:14:37.689Z,72.12
2019-03-19T07:17:06.956Z,71.74
2019-03-19T07:19:36.122Z,71.37
2019-03-19T07:22:06.253Z,71.52
2019-03-19T07:24:35.435Z,71.44
2019-03-19T07:27:05.876Z,70.75
2019-03-19T07:29:35.163Z,70.37
2019-03-19T07:32:06.064Z,70.49
2019-03-19T07:34:35.816Z,70.61
2019-03-19T07:37:05.645Z,70.02
2019-03-19T07:39:34.994Z,70.02
2019-03-19T07:42:04.289Z,70.02
2019-03-19T07:44:33.630Z,70.18
2019-03-19T07:47:02.841Z,70.05
2019-03-19T07:49:32.087Z,69.59
2019-03-19T07:52:01.275Z,69.59
2019-03-19T07:54:30.482Z,69.37
2019-03-19T07:56:59.731Z,68.71
2019-03-19T07:59:29.064Z,68.28
2019-03-19T08:02:00.607Z,68.05
2019-03-19T08:04:29.836Z,67.68
2019-03-19T08:06:59.279Z,67.44
2019-03-19T08:09:28.755Z,66.95
2019-03-19T08:11:58.078Z,66.73
2019-03-19T08:14:28.078Z,66.03
2019-03-19T08:16:57.406Z,65.64
2019-03-19T08:19:26.518Z,64.92
2019-03-19T08:21:55.834Z,64.72
2019-03-19T08:24:25.143Z,64.16
2019-03-19T08:26:54.297Z,63.56
2019-03-19T08:29:23.527Z,62.67
2019-03-19T08:31:52.778Z,62.26
2019-03-19T08:34:22.129Z,62.53
2019-03-19T08:36:51.373Z,61.87
2019-03-19T08:39:20.751Z,61.23
2019-03-19T08:41:50.014Z,61.44
2019-03-19T08:44:27.472Z,61.05
2019-03-19T08:46:50.138Z,60.70
2019-03-19T08:49:19.309Z,60.77
2019-03-19T08:51:51.264Z,60.92
2019-03-19T08:54:20.488Z,60.51
2019-03-19T08:56:49.659Z,60.17
2019-03-19T08:59:18.887Z,60.18
2019-03-19T09:01:50.933Z,60.38
2019-03-19T09:04:22.360Z,60.50
2019-03-19T09:06:51.605Z,61.00
2019-03-19T09:09:20.763Z,60.99
2019-03-19T09:11:50.002Z,60.38
2019-03-19T09:14:19.058Z,60.52
2019-03-19T09:16:51.265Z,60.98
2019-03-19T09:19:20.425Z,59.54
2019-03-19T09:21:49.654Z,58.24
2019-03-19T09:24:18.869Z,58.59
2019-03-19T09:26:48.094Z,58.86
2019-03-19T09:29:17.459Z,58.71
2019-03-19T09:31:46.964Z,58.30
2019-03-19T09:34:16.141Z,57.30
2019-03-19T09:36:45.432Z,55.27
2019-03-19T09:39:14.643Z,55.54
2019-03-19T09:41:46.071Z,55.69
2019-03-19T09:44:15.240Z,54.75
2019-03-19T09:46:44.667Z,55.27
2019-03-19T09:49:14.354Z,54.76
2019-03-19T09:51:43.819Z,54.46
2019-03-19T09:54:13.047Z,54.68
2019-03-19T09:56:42.197Z,54.63
2019-03-19T09:59:11.708Z,52.59
2019-03-19T10:01:40.961Z,53.42
2019-03-19T10:04:10.176Z,52.54
2019-03-19T10:06:39.365Z,52.15
2019-03-19T10:09:09.565Z,51.26
2019-03-19T10:11:39.044Z,50.15
2019-03-19T10:14:08.272Z,49.78
2019-03-19T10:16:37.699Z,50.77
2019-03-19T10:19:07.099Z,50.01
2019-03-19T10:21:36.746Z,48.25
2019-03-19T10:24:06.089Z,48.83
2019-03-19T10:26:37.051Z,47.13
2019-03-19T10:29:06.329Z,48.29
2019-03-19T10:31:35.634Z,47.97
2019-03-19T10:34:05.218Z,47.64
2019-03-19T10:36:34.505Z,47.74
2019-03-19T10:39:04.795Z,47.36
2019-03-19T10:41:34.042Z,47.42
2019-03-19T10:44:03.246Z,47.31
2019-03-19T10:46:32.445Z,47.23
2019-03-19T10:49:01.940Z,47.16
2019-03-19T10:51:31.093Z,47.00
2019-03-19T10:54:03.471Z,47.21
2019-03-19T10:56:34.780Z,48.03
2019-03-19T10:59:03.935Z,46.98
2019-03-19T11:01:33.150Z,47.33
2019-03-19T11:04:02.566Z,46.26
2019-03-19T11:06:31.737Z,46.29
2019-03-19T11:09:01.780Z,45.93
2019-03-19T11:11:31.209Z,45.08
2019-03-19T11:14:03.991Z,43.79
2019-03-19T11:16:35.234Z,43.76
2019-03-19T11:19:04.499Z,44.00
2019-03-19T11:21:33.744Z,44.79
2019-03-19T11:24:03.007Z,45.47
2019-03-19T11:26:32.488Z,43.99
2019-03-19T11:29:04.551Z,43.98
2019-03-19T11:31:33.787Z,43.50
2019-03-19T11:34:03.103Z,43.11
2019-03-19T11:36:33.526Z,43.51
2019-03-19T11:39:02.684Z,43.17
2019-03-19T11:41:32.076Z,43.23
2019-03-19T11:44:01.266Z,42.74
2019-03-19T11:46:30.613Z,41.87
2019-03-19T11:48:59.774Z,42.15
2019-03-19T11:51:30.409Z,42.02
2019-03-19T11:53:59.581Z,42.62
2019-03-19T11:56:28.803Z,42.91
2019-03-19T11:58:57.990Z,43.10
2019-03-19T12:01:27.180Z,42.42
2019-03-19T12:03:56.397Z,42.12
2019-03-19T12:06:25.705Z,41.40
2019-03-19T12:08:54.930Z,41.54
2019-03-19T12:11:24.105Z,41.69
2019-03-19T12:13:54.458Z,41.61
2019-03-19T12:16:24.148Z,38.79
2019-03-19T12:18:56.405Z,37.86
2019-03-19T12:21:25.669Z,36.73
2019-03-19T12:23:55.228Z,36.45
2019-03-19T12:26:24.382Z,36.31
2019-03-19T12:28:53.754Z,35.19
2019-03-19T12:31:23.642Z,35.37
2019-03-19T12:33:52.871Z,33.95
2019-03-19T12:36:22.166Z,32.95
2019-03-19T12:38:51.451Z,33.21
2019-03-19T12:41:22.919Z,34.08
2019-03-19T12:43:52.142Z,31.29
2019-03-19T12:46:21.399Z,32.38
2019-03-19T12:48:50.863Z,32.38
2019-03-19T12:51:20.101Z,31.45
2019-03-19T12:53:55.512Z,32.63
2019-03-19T12:56:24.977Z,31.61
2019-03-19T12:58:54.131Z,31.34
2019-03-19T13:01:23.483Z,30.83
2019-03-19T13:03:52.709Z,31.46
2019-03-19T13:06:21.931Z,30.39
2019-03-19T13:08:51.070Z,30.82
2019-03-19T13:11:20.252Z,31.17
2019-03-19T13:13:49.445Z,30.14
2019-03-19T13:16:18.663Z,31.54
2019-03-19T13:18:49.961Z,31.46
2019-03-19T13:21:19.254Z,31.22
2019-03-19T13:23:48.440Z,31.61
2019-03-19T13:26:17.710Z,31.68
2019-03-19T13:28:46.927Z,32.37
2019-03-19T13:31:18.033Z,33.31
2019-03-19T13:33:47.291Z,32.20
2019-03-19T13:36:18.574Z,32.52
2019-03-19T13:38:47.820Z,33.05
2019-03-19T13:41:17.079Z,33.03
2019-03-19T13:43:46.273Z,33.03
2019-03-19T13:46:15.434Z,34.00
2019-03-19T13:48:44.749Z,34.45
2019-03-19T13:51:13.901Z,33.97
2019-03-19T13:53:43.138Z,34.00
2019-03-19T13:56:12.248Z,34.56
2019-03-19T13:58:41.442Z,34.40
2019-03-19T14:01:10.617Z,34.20
2019-03-19T14:03:39.759Z,33.60
2019-03-19T14:06:09.039Z,33.41
2019-03-19T14:08:40.702Z,34.11
2019-03-19T14:11:09.975Z,34.88
2019-03-19T14:13:39.130Z,35.90
2019-03-19T14:16:08.426Z,36.10
2019-03-19T14:18:37.939Z,36.66
2019-03-19T14:21:07.206Z,36.08
2019-03-19T14:23:39.188Z,35.24
2019-03-19T14:26:08.422Z,34.05
2019-03-19T14:28:39.909Z,33.41
2019-03-19T14:31:09.377Z,32.36
2019-03-19T14:33:38.628Z,32.39
2019-03-19T14:36:10.212Z,32.04
2019-03-19T14:38:46.681Z,32.32
2019-03-19T14:41:09.751Z,32.47
2019-03-19T14:43:38.758Z,33.02
2019-03-19T14:46:08.729Z,32.81
2019-03-19T14:48:41.098Z,33.62
2019-03-19T14:51:10.340Z,33.90
2019-03-19T14:53:39.527Z,34.80
2019-03-19T14:56:08.762Z,35.68
2019-03-19T14:58:37.955Z,35.58
2019-03-19T15:01:07.151Z,35.93
2019-03-19T15:03:36.384Z,36.02
2019-03-19T15:06:05.725Z,36.28
2019-03-19T15:08:36.938Z,36.59
2019-03-19T15:11:06.127Z,37.17
2019-03-19T15:13:35.364Z,37.39
2019-03-19T15:16:29.500Z,37.46
2019-03-19T15:19:02.048Z,37.88
2019-03-19T15:21:32.038Z,37.42
2019-03-19T15:24:01.332Z,38.05
2019-03-19T15:26:31.694Z,37.10
2019-03-19T15:29:01.011Z,37.61
2019-03-19T15:31:30.388Z,37.14
2019-03-19T15:33:59.601Z,37.86
2019-03-19T15:36:28.881Z,38.71
2019-03-19T15:38:58.097Z,38.66
2019-03-19T15:41:28.455Z,38.97
2019-03-19T15:43:57.680Z,38.87
2019-03-19T15:46:26.866Z,39.27
2019-03-19T15:48:56.165Z,39.32
2019-03-19T15:51:25.713Z,39.93
2019-03-19T15:53:55.045Z,40.47
2019-03-19T15:56:24.383Z,40.62
2019-03-19T15:58:53.624Z,40.18
2019-03-19T16:01:22.986Z,41.09
2019-03-19T16:03:52.350Z,41.12
2019-03-19T16:06:21.535Z,41.20
2019-03-19T16:08:50.756Z,41.32
2019-03-19T16:11:19.987Z,41.18
2019-03-19T16:13:49.198Z,41.23
2019-03-19T16:16:18.555Z,41.40
2019-03-19T16:18:47.900Z,42.01
2019-03-19T16:21:17.461Z,42.42
2019-03-19T16:23:46.703Z,42.29
2019-03-19T16:26:15.895Z,41.95
2019-03-19T16:28:45.117Z,42.30
2019-03-19T16:31:14.368Z,42.42
2019-03-19T16:33:43.566Z,42.71
2019-03-19T16:36:12.869Z,42.38
2019-03-19T16:38:42.377Z,42.20
2019-03-19T16:41:11.599Z,42.46
2019-03-19T16:43:41.257Z,42.57
2019-03-19T16:46:10.445Z,42.71
2019-03-19T16:48:39.963Z,42.67
2019-03-19T16:51:09.527Z,42.45
2019-03-19T16:53:38.758Z,42.66
2019-03-19T16:56:08.118Z,43.09
2019-03-19T16:58:37.433Z,43.32
2019-03-19T17:01:07.313Z,43.18
2019-03-19T17:03:36.503Z,43.43
2019-03-19T17:06:06.319Z,43.41
2019-03-19T17:08:35.612Z,44.33
2019-03-19T17:11:04.968Z,44.54
2019-03-19T17:13:34.111Z,46.21
2019-03-19T17:16:03.424Z,44.36
2019-03-19T17:18:33.025Z,45.29
2019-03-19T17:21:02.287Z,44.65
2019-03-19T17:23:31.531Z,44.84
2019-03-19T17:26:00.965Z,45.58
2019-03-19T17:28:30.217Z,44.83
2019-03-19T17:30:59.386Z,44.81
2019-03-19T17:33:28.613Z,45.88
2019-03-19T17:38:27.540Z,45.23
2019-03-19T17:40:56.757Z,46.04
2019-03-19T17:43:26.229Z,45.54
2019-03-19T17:45:55.396Z,45.39
2019-03-19T17:48:25.385Z,45.66
2019-03-19T17:50:55.687Z,45.71
2019-03-19T17:53:28.429Z,45.77
2019-03-19T17:55:59.743Z,46.04
2019-03-19T17:58:29.729Z,46.10
2019-03-19T18:00:59.031Z,46.05
2019-03-19T18:03:29.515Z,46.28
2019-03-19T18:05:58.760Z,46.84
2019-03-19T18:08:31.227Z,46.88
2019-03-19T18:11:00.422Z,46.68
2019-03-19T18:13:30.181Z,47.23
2019-03-19T18:15:59.374Z,47.08
2019-03-19T18:18:28.665Z,47.35
2019-03-19T18:20:58.229Z,47.43
2019-03-19T18:23:29.404Z,47.62
2019-03-19T18:25:58.808Z,47.67
2019-03-19T18:28:31.182Z,47.69
2019-03-19T18:31:01.973Z,47.67
2019-03-19T18:33:32.000Z,47.59
2019-03-19T18:36:01.277Z,47.99
2019-03-19T18:38:30.437Z,47.80
2019-03-19T18:40:59.702Z,47.91
2019-03-19T18:43:28.965Z,48.27
2019-03-19T18:45:58.470Z,48.43
2019-03-19T18:48:27.638Z,49.04
2019-03-19T18:50:56.839Z,49.21
2019-03-19T18:53:29.181Z,49.34
2019-03-19T18:55:58.733Z,49.68
2019-03-19T18:58:28.001Z,49.92
2019-03-19T19:00:57.253Z,49.96
2019-03-19T19:03:26.459Z,50.47
2019-03-19T19:05:55.747Z,50.61
2019-03-19T19:08:24.947Z,50.94
2019-03-19T19:10:54.143Z,50.88
2019-03-19T19:13:23.374Z,51.25
2019-03-19T19:15:52.655Z,51.27
2019-03-19T19:18:21.864Z,51.18
2019-03-19T19:20:51.385Z,51.21
2019-03-19T19:23:20.686Z,51.52
2019-03-19T19:25:49.887Z,51.67
2019-03-19T19:28:19.135Z,51.99
2019-03-19T19:30:48.399Z,51.72
2019-03-19T19:33:17.696Z,52.07
2019-03-19T19:35:46.902Z,52.31
2019-03-19T19:38:16.156Z,52.60
2019-03-19T19:40:45.337Z,52.98
2019-03-19T19:43:14.665Z,53.07
2019-03-19T19:45:43.988Z,53.51
2019-03-19T19:48:13.225Z,53.65
2019-03-19T19:50:42.667Z,53.87
2019-03-19T19:53:11.838Z,53.96
2019-03-19T19:55:41.425Z,54.05
2019-03-19T19:58:11.514Z,54.34
2019-03-19T20:00:40.792Z,54.68
2019-03-19T20:03:12.432Z,54.70
2019-03-19T20:05:41.051Z,54.67
2019-03-19T20:08:10.253Z,54.66
2019-03-19T20:10:40.452Z,54.83
2019-03-19T20:13:09.743Z,55.09
2019-03-19T20:15:39.042Z,54.88
2019-03-19T20:18:08.306Z,54.83
2019-03-19T20:20:37.526Z,54.70
2019-03-19T20:23:06.862Z,54.82
2019-03-19T20:25:36.380Z,54.96
2019-03-19T20:28:05.721Z,55.47
2019-03-19T20:30:34.968Z,55.57
2019-03-19T20:33:04.103Z,55.98
2019-03-19T20:35:33.701Z,55.72
2019-03-19T20:38:03.241Z,55.90
2019-03-19T20:40:32.447Z,55.74
2019-03-19T20:43:01.750Z,55.73
2019-03-19T20:45:31.052Z,55.75
2019-03-19T20:48:03.591Z,55.79
2019-03-19T20:50:32.859Z,55.80
2019-03-19T20:53:02.138Z,55.67
2019-03-19T20:55:32.212Z,55.82
2019-03-19T20:58:03.630Z,55.93
2019-03-19T21:00:32.866Z,56.13
2019-03-19T21:03:04.526Z,56.19
2019-03-19T21:05:35.027Z,56.16
2019-03-19T21:08:04.450Z,56.34
2019-03-19T21:10:33.659Z,56.43
2019-03-19T21:13:03.045Z,56.34
2019-03-19T21:15:34.326Z,56.70
2019-03-19T21:18:04.535Z,57.37
2019-03-19T21:20:33.564Z,57.26
2019-03-19T21:23:02.744Z,57.24
2019-03-19T21:25:31.967Z,57.01
2019-03-19T21:28:01.140Z,57.01
2019-03-19T21:30:31.156Z,57.25
2019-03-19T21:33:00.347Z,57.31
2019-03-19T21:35:29.472Z,57.43
2019-03-19T21:37:58.756Z,57.21
2019-03-19T21:40:27.937Z,57.25
2019-03-19T21:42:57.100Z,57.22
2019-03-19T21:45:26.272Z,57.49
2019-03-19T21:47:56.992Z,57.52
2019-03-19T21:50:26.271Z,57.43
2019-03-19T21:52:55.536Z,57.35
2019-03-19T21:55:24.772Z,57.25
2019-03-19T21:57:53.980Z,57.43
2019-03-19T22:00:28.284Z,57.40
2019-03-19T22:02:57.874Z,57.48
2019-03-19T22:05:27.090Z,57.74
2019-03-19T22:07:56.415Z,57.82
2019-03-19T22:10:27.703Z,57.80
2019-03-19T22:12:56.912Z,58.27
2019-03-19T22:15:26.216Z,58.25
2019-03-19T22:17:55.503Z,58.09
2019-03-19T22:20:27.680Z,58.29
2019-03-19T22:22:57.182Z,58.66
2019-03-19T22:25:26.753Z,58.67
2019-03-19T22:27:55.950Z,58.67
2019-03-19T22:30:31.229Z,58.71
2019-03-19T22:33:00.426Z,58.84
2019-03-19T22:35:29.653Z,58.86
2019-03-19T22:37:58.813Z,58.92
2019-03-19T22:40:47.059Z,59.29
2019-03-19T22:43:16.269Z,59.43
2019-03-19T22:45:45.422Z,59.43
2019-03-19T22:48:17.656Z,59.64
2019-03-19T22:50:46.796Z,59.78
2019-03-19T22:53:17.572Z,59.70
2019-03-19T22:55:50.017Z,59.81
2019-03-19T22:58:19.300Z,60.08
2019-03-19T23:00:49.769Z,60.35
2019-03-19T23:03:19.075Z,60.46
2019-03-19T23:05:48.225Z,60.55
2019-03-19T23:08:17.624Z,60.78
2019-03-19T23:10:46.827Z,60.63
2019-03-19T23:13:16.589Z,60.73
2019-03-19T23:15:45.866Z,61.03
2019-03-19T23:18:16.078Z,61.42
2019-03-19T23:20:45.386Z,61.55
2019-03-19T23:23:17.035Z,61.70
2019-03-19T23:25:46.239Z,61.69
2019-03-19T23:28:18.088Z,61.58
2019-03-19T23:30:48.105Z,61.84
2019-03-19T23:33:17.291Z,61.70
2019-03-19T23:35:46.525Z,61.83
2019-03-19T23:38:15.745Z,61.75
2019-03-19T23:40:46.011Z,61.99
2019-03-19T23:43:15.428Z,62.04
2019-03-19T23:45:45.951Z,61.92
2019-03-19T23:48:15.148Z,61.93
2019-03-19T23:50:44.368Z,62.03
2019-03-19T23:53:15.365Z,62.00
2019-03-19T23:55:47.399Z,62.23
2019-03-19T23:58:19.873Z,62.22
